Flight Track Log - Related Links

Times and Time Zones

All times are in EDT time to prevent confusion due to time zone crossing. See the ASA52 flight status page for this flight to view local times or setup timezone preferences in your user account.

Time Position Orientation Groundspeed Altitude Reporting Facility
EDT Latitude Longitude Course Direction KTS MPH feet Rate Location/Type
Thu 05:17:13 PM 64.7500 -148.0667 214° Southwest 250 288 3,800  Level Anchorage Center
Thu 05:18:14 PM 64.6833 -148.1500 208° Southwest 280 322 6,900 3,000 Climbing Anchorage Center
Thu 05:19:15 PM 64.6000 -148.2167 199° South 290 334 9,900 2,231 Climbing Anchorage Center
Thu 05:20:15 PM 64.5167 -148.2833 199° South 330 380 11,400 2,050 Climbing Anchorage Center
Thu 05:21:15 PM 64.4500 -148.3500 203° Southwest 370 426 14,000 2,600 Climbing Anchorage Center
Thu 05:22:00 PM 64.2143 -149.0771 214° Southwest  Level FlightAware Approximate
Thu 05:22:15 PM 64.3500 -148.4333 200° South 380 437 16,600  Level Anchorage Center
Thu 05:23:16 PM 64.2500 -148.5167 200° South 400 460 19,000 2,083 Climbing Anchorage Center
Thu 05:24:16 PM 64.1333 -148.6000 197° South 410 472 20,800 1,950 Climbing Anchorage Center
Thu 05:25:16 PM 64.0167 -148.7000 201° Southwest 430 495 22,900 1,785 Climbing Anchorage Center
Thu 05:26:17 PM 63.9000 -148.8000 201° Southwest 450 518 24,400 1,438 Climbing Anchorage Center
Thu 05:27:17 PM 63.7833 -148.8833 198° South 470 541 25,800 1,500 Climbing Anchorage Center
Thu 05:28:17 PM 63.6500 -148.9833 198° South 490 564 27,400 1,636 Climbing Anchorage Center
Thu 05:29:18 PM 63.5167 -149.0833 198° South 490 564 29,100 1,700 Climbing Anchorage Center
Thu 05:30:17 PM 63.3833 -149.2167 204° Southwest 490 564 30,800 1,650 Climbing Anchorage Center
Thu 05:31:18 PM 63.2500 -149.3167 199° South 490 564 32,400 1,091 Climbing Anchorage Center
Thu 05:32:18 PM 63.1333 -149.3833 194° South 490 564 33,000 300 Climbing Anchorage Center
Thu 05:33:18 PM 63.0167 -149.4833 201° Southwest 480 552 33,000  Level Anchorage Center
Thu 05:34:19 PM 62.8833 -149.5833 199° South 470 541 33,000 -50 Level Anchorage Center
Thu 05:35:19 PM 62.7333 -149.7000 200° South 490 564 32,900 -1,686 Descending Anchorage Center
Thu 05:36:20 PM 62.6167 -149.7833 198° South 480 552 29,600 -3,273 Descending Anchorage Center
Thu 05:37:20 PM 62.4833 -149.8667 196° South 500 575 26,300 -3,050 Descending Anchorage Center
Thu 05:38:20 PM 62.3333 -149.9833 200° South 490 564 23,500 -2,678 Descending Anchorage Center
Thu 05:39:21 PM 62.2167 -150.0667 198° South 470 541 20,900 -2,529 Descending Anchorage Center
Thu 05:40:21 PM 62.1167 -150.1333 197° South 450 518 18,400 -2,550 Descending Anchorage Center
Thu 05:41:21 PM 61.9833 -150.2333 199° South 420 483 15,800 -2,600 Descending Anchorage Center
Thu 05:43:00 PM 61.8346 -150.3381 198° South  Level FlightAware Approximate
Thu 05:50:00 PM 61.2266 -150.0124 149° Southeast  Level FlightAware Approximate
Thu 05:51:00 PM 61.1741 -149.9982 270° West  Level Estimated
Thu 05:52:00 PM 61.1741 -149.9982 270° West  Level Estimated
Thu 05:53:00 PM 61.1741 -149.9982 270° West  Level Estimated
Thu 05:54:00 PM 61.1741 -149.9982 270° West  Level Estimated
Thu 05:55:00 PM 61.1741 -149.9982 270° West  Level Estimated
Thu 05:56:00 PM 61.1741 -149.9982 270° West  Level Estimated
Thu 05:57:00 PM 61.1741 -149.9982 270° West  Level Estimated
Thu 05:58:00 PM 61.1741 -149.9982 270° West  Level Estimated
Thu 05:59:00 PM 61.1741 -149.9982 270° West  Level Estimated
Thu 06:00:00 PM 61.1741 -149.9982 270° West  Level Estimated
Thu 06:01:00 PM 61.1741 -149.9982 270° West  Level Estimated
Thu 06:02:00 PM 61.1741 -149.9982 270° West  Level Estimated
Thu 06:03:00 PM 61.1741 -149.9982 270° West  Level Estimated
Thu 06:04:00 PM 61.1741 -149.9982 270° West  Level Estimated

Login

Don't have an account? Register now (free) for customized features, flight alerts, and more!